Oberlin, Kansas
Current Conditions -  °F | °C
As of 10:53 PM on Friday 19 Dec 2014 (Local Time) from KMCK Reporting Station
Clear Clear  
Wind Chill: 18°   Ceiling: Unl
Heat Index: 27°   Visibility: 10mi
Dew Point: 22°   Wind: 9mph
Humidity: 81%   Direction: 260°W
Pressure: 30.04"   Gusts: NA
Location:  39.82°N, 100.53°W
Report Text: KMCK 200453Z AUTO 26008KT 10SM CLR M03/M06 A3004 RMK AO2 SLP199 T10281056
Loading
Personal Weather Stations






























Interactive Weather Map New forecast layout! Learn more

10-Day Weather Forecast

Advertisements
Track Severe Weather on mobile